Waterloo, NY

10:53 PM EDT on April 29, 2017 (GMT -0400)
State Street | | Change Station

Elev 499 ft 42.92 °N, 76.80 °W | Updated 11 seconds ago

Partly Cloudy
Partly Cloudy
49.5 °F
Feels Like 48 °F
N
4.0
Wind Variable Wind from North
Gusts 6.0 mph

Today
High -- | Low -- °F
--% Chance of Precip.
Yesterday
High -- | Low -- °F
Precip. -- in
Pressure 30.21 in
Visibility 10.0 miles
Clouds Few 6000 ft
Mostly Cloudy 10000 ft
Windchill 48 °F
Dew Point 40 °F
Humidity 69%
Rainfall 0.00 in
Snow Depth Not available.
6:03 AM 8:06 PM
Waxing Crescent, 18% visible
METAR KPEO 300153Z AUTO 26004KT 10SM FEW060 BKN100 11/03 A3020 RMK AO2 SLP229 T01110028
Pressure 30.21 in
Visibility 10.0 miles
Clouds Few 6000 ft
Mostly Cloudy 10000 ft
Windchill 48 °F
Dew Point 40 °F
Humidity 69%
Rainfall 0.00 in
Snow Depth Not available.
6:03 AM 8:06 PM
Waxing Crescent, 18% visible
METAR KPEO 300153Z AUTO 26004KT 10SM FEW060 BKN100 11/03 A3020 RMK AO2 SLP229 T01110028

Get Severe Weather Alerts

Thanks for signing up!

Be on the lookout for a verification email in your inbox.

You'll start receiving the daily forecast at 8 AM.

×

10-Day Weather Forecast

Almanac

Astronomy

Apr. 29, 2017 Rise Set
Actual Time
Civil Twilight
Nautical Twilight
Astronomical Twilight
Moon
Length of Visible Light
Length of Day
Tomorrow will be .
, % of the Moon is Illuminated

Today's Extremes

State Highs State Lows

Community

WunderPhotos

WunderBlog® & News

Nearby

Air Quality

  Air Quality AQ Index Pollutant
Not available.

Snow Depth

Station Depth Elevation

Earthquake Activity

City Distance Mag. Time & Date
Minimum magnitude displayed is 2.5.

Coastal Water Temperatures

Place Temperature

Stations

Nearby Weather Stations

Station Location Temp. Windchill Dew Point Humidity Wind Precip. Elev Updated Type
                   

Watches & Warnings

There are currently no watches in effect.